sensor_id;sensor_type;location;lat;lon;timestamp;pressure;altitude;pressure_sealevel;temperature;humidity
5883;BME280;2967;51.488;6.618;2024-02-21T00:02:19;102008.72;;;11.33;100.00
5883;BME280;2967;51.488;6.618;2024-02-21T00:07:22;102029.06;;;11.68;100.00
5883;BME280;2967;51.488;6.618;2024-02-21T00:12:25;102010.84;;;11.79;100.00
5883;BME280;2967;51.488;6.618;2024-02-21T00:17:29;102004.53;;;11.81;100.00
5883;BME280;2967;51.488;6.618;2024-02-21T00:22:32;101987.66;;;11.65;100.00
5883;BME280;2967;51.488;6.618;2024-02-21T00:27:35;101973.69;;;11.45;100.00
5883;BME280;2967;51.488;6.618;2024-02-21T00:32:39;101984.94;;;11.31;100.00
5883;BME280;2967;51.488;6.618;2024-02-21T00:37:42;101923.25;;;10.94;100.00
5883;BME280;2967;51.488;6.618;2024-02-21T00:42:45;101982.00;;;11.37;100.00
5883;BME280;2967;51.488;6.618;2024-02-21T00:47:49;101991.97;;;11.32;100.00
5883;BME280;2967;51.488;6.618;2024-02-21T00:52:52;101857.63;;;11.00;100.00
5883;BME280;2967;51.488;6.618;2024-02-21T00:57:55;101974.88;;;11.73;100.00
5883;BME280;2967;51.488;6.618;2024-02-21T01:02:59;101957.03;;;11.60;100.00
5883;BME280;2967;51.488;6.618;2024-02-21T01:08:02;101955.13;;;11.45;100.00
5883;BME280;2967;51.488;6.618;2024-02-21T01:13:05;101939.47;;;11.57;100.00
5883;BME280;2967;51.488;6.618;2024-02-21T01:18:10;101929.19;;;11.85;100.00
5883;BME280;2967;51.488;6.618;2024-02-21T01:23:13;101927.16;;;11.90;100.00
5883;BME280;2967;51.488;6.618;2024-02-21T01:28:15;101935.03;;;11.92;100.00
5883;BME280;2967;51.488;6.618;2024-02-21T01:33:20;101927.31;;;11.87;100.00
5883;BME280;2967;51.488;6.618;2024-02-21T01:38:23;101896.19;;;11.91;100.00
5883;BME280;2967;51.488;6.618;2024-02-21T01:43:25;101876.50;;;11.28;100.00
5883;BME280;2967;51.488;6.618;2024-02-21T01:48:30;101899.44;;;11.63;100.00
5883;BME280;2967;51.488;6.618;2024-02-21T01:53:35;101909.84;;;11.66;100.00
5883;BME280;2967;51.488;6.618;2024-02-21T01:58:40;101902.47;;;11.73;100.00
5883;BME280;2967;51.488;6.618;2024-02-21T02:03:46;101889.59;;;11.65;100.00
5883;BME280;2967;51.488;6.618;2024-02-21T02:08:50;101884.91;;;11.36;100.00
5883;BME280;2967;51.488;6.618;2024-02-21T02:13:52;101816.50;;;10.93;100.00
5883;BME280;2967;51.488;6.618;2024-02-21T02:18:57;101805.25;;;10.71;100.00
5883;BME280;2967;51.488;6.618;2024-02-21T02:24:01;101841.44;;;11.23;100.00
5883;BME280;2967;51.488;6.618;2024-02-21T02:29:04;101739.31;;;10.67;100.00
5883;BME280;2967;51.488;6.618;2024-02-21T02:34:07;101794.38;;;10.94;100.00
5883;BME280;2967;51.488;6.618;2024-02-21T02:39:12;101806.69;;;11.12;100.00
5883;BME280;2967;51.488;6.618;2024-02-21T02:44:15;101795.47;;;11.24;100.00
5883;BME280;2967;51.488;6.618;2024-02-21T02:49:18;101821.25;;;11.38;100.00
5883;BME280;2967;51.488;6.618;2024-02-21T02:54:22;101818.34;;;11.42;100.00
5883;BME280;2967;51.488;6.618;2024-02-21T02:59:25;101803.00;;;11.32;100.00
5883;BME280;2967;51.488;6.618;2024-02-21T03:04:27;101772.03;;;11.17;100.00
5883;BME280;2967;51.488;6.618;2024-02-21T03:09:32;101772.91;;;11.17;100.00
5883;BME280;2967;51.488;6.618;2024-02-21T03:14:35;101786.34;;;11.47;100.00
5883;BME280;2967;51.488;6.618;2024-02-21T03:19:38;101796.38;;;11.57;100.00
5883;BME280;2967;51.488;6.618;2024-02-21T03:24:43;101775.31;;;11.71;100.00
5883;BME280;2967;51.488;6.618;2024-02-21T03:29:46;101775.31;;;11.71;100.00
5883;BME280;2967;51.488;6.618;2024-02-21T03:34:48;101787.88;;;11.51;100.00
5883;BME280;2967;51.488;6.618;2024-02-21T03:39:53;101746.41;;;11.50;100.00
5883;BME280;2967;51.488;6.618;2024-02-21T03:44:56;101782.09;;;11.27;100.00
5883;BME280;2967;51.488;6.618;2024-02-21T03:49:58;101779.50;;;11.43;100.00
5883;BME280;2967;51.488;6.618;2024-02-21T03:55:04;101785.47;;;11.46;100.00
5883;BME280;2967;51.488;6.618;2024-02-21T04:00:10;101759.13;;;11.43;100.00
5883;BME280;2967;51.488;6.618;2024-02-21T04:05:15;101746.16;;;11.54;100.00
5883;BME280;2967;51.488;6.618;2024-02-21T04:10:20;101759.72;;;11.65;100.00
5883;BME280;2967;51.488;6.618;2024-02-21T04:15:42;101746.66;;;11.62;100.00
5883;BME280;2967;51.488;6.618;2024-02-21T04:21:05;101721.81;;;11.48;100.00
5883;BME280;2967;51.488;6.618;2024-02-21T04:26:29;101754.47;;;11.48;100.00
5883;BME280;2967;51.488;6.618;2024-02-21T04:31:32;101756.31;;;11.63;100.00
5883;BME280;2967;51.488;6.618;2024-02-21T04:36:36;101750.78;;;11.83;100.00
5883;BME280;2967;51.488;6.618;2024-02-21T04:41:39;101752.84;;;11.78;100.00
5883;BME280;2967;51.488;6.618;2024-02-21T04:46:42;101746.84;;;11.59;100.00
5883;BME280;2967;51.488;6.618;2024-02-21T04:51:46;101753.44;;;11.83;100.00
5883;BME280;2967;51.488;6.618;2024-02-21T04:56:50;101637.25;;;11.28;100.00
5883;BME280;2967;51.488;6.618;2024-02-21T05:01:55;101752.06;;;11.76;100.00
5883;BME280;2967;51.488;6.618;2024-02-21T05:06:59;101748.13;;;11.83;100.00
5883;BME280;2967;51.488;6.618;2024-02-21T05:12:04;101729.13;;;11.75;100.00
5883;BME280;2967;51.488;6.618;2024-02-21T05:17:07;101733.59;;;11.75;100.00
5883;BME280;2967;51.488;6.618;2024-02-21T05:22:11;101737.53;;;11.83;100.00
5883;BME280;2967;51.488;6.618;2024-02-21T05:27:15;101729.75;;;11.80;100.00
5883;BME280;2967;51.488;6.618;2024-02-21T05:32:17;101727.81;;;11.84;100.00
5883;BME280;2967;51.488;6.618;2024-02-21T05:37:20;101717.53;;;11.78;100.00
5883;BME280;2967;51.488;6.618;2024-02-21T05:42:24;101673.09;;;11.50;100.00
5883;BME280;2967;51.488;6.618;2024-02-21T05:47:27;101711.88;;;11.68;100.00
5883;BME280;2967;51.488;6.618;2024-02-21T05:52:30;101704.06;;;11.65;100.00
5883;BME280;2967;51.488;6.618;2024-02-21T05:57:38;101623.41;;;11.23;100.00
5883;BME280;2967;51.488;6.618;2024-02-21T06:02:41;101654.97;;;11.43;100.00
5883;BME280;2967;51.488;6.618;2024-02-21T06:07:44;101675.88;;;11.80;100.00
5883;BME280;2967;51.488;6.618;2024-02-21T06:12:48;101643.47;;;11.75;100.00
5883;BME280;2967;51.488;6.618;2024-02-21T06:17:51;101645.38;;;11.73;100.00
5883;BME280;2967;51.488;6.618;2024-02-21T06:22:54;101622.41;;;11.56;100.00
5883;BME280;2967;51.488;6.618;2024-02-21T06:27:58;101656.03;;;11.71;100.00
5883;BME280;2967;51.488;6.618;2024-02-21T06:33:01;101630.13;;;11.61;100.00
5883;BME280;2967;51.488;6.618;2024-02-21T06:38:04;101643.75;;;11.70;100.00
5883;BME280;2967;51.488;6.618;2024-02-21T06:43:08;101614.19;;;11.45;100.00
5883;BME280;2967;51.488;6.618;2024-02-21T06:48:11;101636.56;;;11.72;100.00
5883;BME280;2967;51.488;6.618;2024-02-21T06:53:14;101547.69;;;11.03;100.00
5883;BME280;2967;51.488;6.618;2024-02-21T06:58:18;101640.56;;;11.64;100.00
5883;BME280;2967;51.488;6.618;2024-02-21T07:03:21;101630.47;;;11.70;100.00
5883;BME280;2967;51.488;6.618;2024-02-21T07:08:25;101587.56;;;11.48;100.00
5883;BME280;2967;51.488;6.618;2024-02-21T07:13:30;101635.84;;;11.84;100.00
5883;BME280;2967;51.488;6.618;2024-02-21T07:18:33;101585.28;;;11.56;100.00
5883;BME280;2967;51.488;6.618;2024-02-21T07:23:36;101616.81;;;11.62;100.00
5883;BME280;2967;51.488;6.618;2024-02-21T07:28:40;101619.44;;;11.78;100.00
5883;BME280;2967;51.488;6.618;2024-02-21T07:33:43;101628.28;;;11.63;100.00
5883;BME280;2967;51.488;6.618;2024-02-21T07:38:46;101613.47;;;11.74;100.00
5883;BME280;2967;51.488;6.618;2024-02-21T07:43:50;101616.81;;;11.62;100.00
5883;BME280;2967;51.488;6.618;2024-02-21T07:48:53;101602.00;;;11.89;100.00
5883;BME280;2967;51.488;6.618;2024-02-21T07:53:56;101604.75;;;11.72;100.00
5883;BME280;2967;51.488;6.618;2024-02-21T07:59:00;101595.91;;;11.56;100.00
5883;BME280;2967;51.488;6.618;2024-02-21T08:04:03;101539.06;;;11.46;100.00
5883;BME280;2967;51.488;6.618;2024-02-21T08:09:06;101582.53;;;12.04;100.00
5883;BME280;2967;51.488;6.618;2024-02-21T08:14:10;101573.50;;;11.77;100.00
5883;BME280;2967;51.488;6.618;2024-02-21T08:19:13;101560.41;;;11.90;100.00
5883;BME280;2967;51.488;6.618;2024-02-21T08:24:16;101537.34;;;11.76;100.00
5883;BME280;2967;51.488;6.618;2024-02-21T08:29:20;101530.78;;;12.27;100.00
5883;BME280;2967;51.488;6.618;2024-02-21T08:34:23;101529.56;;;12.18;100.00
5883;BME280;2967;51.488;6.618;2024-02-21T08:39:26;101523.78;;;12.26;100.00
5883;BME280;2967;51.488;6.618;2024-02-21T08:44:33;101516.88;;;12.37;100.00
5883;BME280;2967;51.488;6.618;2024-02-21T08:49:36;101522.56;;;12.31;100.00
5883;BME280;2967;51.488;6.618;2024-02-21T08:54:39;101513.41;;;12.07;100.00
5883;BME280;2967;51.488;6.618;2024-02-21T08:59:43;101510.28;;;11.71;100.00
5883;BME280;2967;51.488;6.618;2024-02-21T09:04:47;101327.88;;;11.05;100.00
5883;BME280;2967;51.488;6.618;2024-02-21T09:09:50;101457.94;;;11.75;100.00
5883;BME280;2967;51.488;6.618;2024-02-21T09:14:54;101397.91;;;11.44;100.00
5883;BME280;2967;51.488;6.618;2024-02-21T09:19:57;101487.41;;;12.14;100.00
5883;BME280;2967;51.488;6.618;2024-02-21T09:25:06;101472.38;;;11.99;100.00
5883;BME280;2967;51.488;6.618;2024-02-21T09:30:11;101468.91;;;12.12;100.00
5883;BME280;2967;51.488;6.618;2024-02-21T09:35:15;101472.25;;;12.30;100.00
5883;BME280;2967;51.488;6.618;2024-02-21T09:40:18;101473.41;;;11.96;100.00
5883;BME280;2967;51.488;6.618;2024-02-21T09:45:24;101468.09;;;11.96;100.00
5883;BME280;2967;51.488;6.618;2024-02-21T09:50:27;101469.09;;;12.09;100.00
5883;BME280;2967;51.488;6.618;2024-02-21T09:55:33;101469.25;;;12.06;100.00
5883;BME280;2967;51.488;6.618;2024-02-21T10:00:37;101463.88;;;11.94;100.00
5883;BME280;2967;51.488;6.618;2024-02-21T10:05:47;101457.69;;;11.93;100.00
5883;BME280;2967;51.488;6.618;2024-02-21T10:10:50;101451.22;;;12.13;100.00
5883;BME280;2967;51.488;6.618;2024-02-21T10:16:03;101430.34;;;12.07;100.00
5883;BME280;2967;51.488;6.618;2024-02-21T10:21:06;101438.91;;;12.26;100.00
5883;BME280;2967;51.488;6.618;2024-02-21T10:26:10;101426.75;;;12.22;100.00
5883;BME280;2967;51.488;6.618;2024-02-21T10:31:22;101411.81;;;12.35;99.43
5883;BME280;2967;51.488;6.618;2024-02-21T10:36:26;101402.03;;;12.35;98.88
5883;BME280;2967;51.488;6.618;2024-02-21T10:41:30;101400.16;;;12.09;98.63
5883;BME280;2967;51.488;6.618;2024-02-21T10:46:35;101379.28;;;12.45;100.00
5883;BME280;2967;51.488;6.618;2024-02-21T10:51:43;101357.31;;;12.43;98.26
5883;BME280;2967;51.488;6.618;2024-02-21T10:56:47;101349.16;;;12.46;97.98
5883;BME280;2967;51.488;6.618;2024-02-21T11:01:54;101328.72;;;12.61;98.00
5883;BME280;2967;51.488;6.618;2024-02-21T11:07:00;101309.53;;;12.84;96.69
5883;BME280;2967;51.488;6.618;2024-02-21T11:12:10;101302.81;;;12.78;96.54
5883;BME280;2967;51.488;6.618;2024-02-21T11:17:18;101282.94;;;12.71;96.63
5883;BME280;2967;51.488;6.618;2024-02-21T11:22:22;101266.19;;;12.83;97.06
5883;BME280;2967;51.488;6.618;2024-02-21T11:27:26;101227.09;;;12.85;96.30
5883;BME280;2967;51.488;6.618;2024-02-21T11:32:57;101217.97;;;13.16;96.00
5883;BME280;2967;51.488;6.618;2024-02-21T11:38:11;101170.28;;;12.88;95.94
5883;BME280;2967;51.488;6.618;2024-02-21T11:43:16;101192.75;;;12.96;96.80
5883;BME280;2967;51.488;6.618;2024-02-21T11:48:20;101179.38;;;12.98;95.24
5883;BME280;2967;51.488;6.618;2024-02-21T11:53:23;101146.84;;;12.94;94.54
5883;BME280;2967;51.488;6.618;2024-02-21T11:58:28;101146.63;;;12.97;95.16
5883;BME280;2967;51.488;6.618;2024-02-21T12:03:33;101170.88;;;13.05;93.57
5883;BME280;2967;51.488;6.618;2024-02-21T12:08:43;101142.72;;;13.15;94.03
5883;BME280;2967;51.488;6.618;2024-02-21T12:13:46;101131.03;;;13.30;93.46
5883;BME280;2967;51.488;6.618;2024-02-21T12:18:52;101115.00;;;13.07;93.32
5883;BME280;2967;51.488;6.618;2024-02-21T12:23:55;101099.34;;;13.39;92.60
5883;BME280;2967;51.488;6.618;2024-02-21T12:28:58;101106.00;;;13.45;91.75
5883;BME280;2967;51.488;6.618;2024-02-21T12:34:03;101091.84;;;13.57;90.52
5883;BME280;2967;51.488;6.618;2024-02-21T12:39:06;101064.06;;;13.73;91.99
5883;BME280;2967;51.488;6.618;2024-02-21T12:44:10;101078.19;;;13.74;89.57
5883;BME280;2967;51.488;6.618;2024-02-21T12:49:15;101060.53;;;13.73;88.58
5883;BME280;2967;51.488;6.618;2024-02-21T12:54:18;101047.56;;;13.68;88.40
5883;BME280;2967;51.488;6.618;2024-02-21T12:59:20;101028.72;;;13.71;88.37
5883;BME280;2967;51.488;6.618;2024-02-21T13:04:24;101015.09;;;13.52;87.31
5883;BME280;2967;51.488;6.618;2024-02-21T13:09:28;101010.31;;;13.81;87.53
5883;BME280;2967;51.488;6.618;2024-02-21T13:14:30;100972.34;;;13.79;87.20
5883;BME280;2967;51.488;6.618;2024-02-21T13:19:35;100944.97;;;13.42;88.78
5883;BME280;2967;51.488;6.618;2024-02-21T13:24:38;100927.84;;;13.23;90.12
5883;BME280;2967;51.488;6.618;2024-02-21T13:29:41;100889.91;;;13.33;88.71
5883;BME280;2967;51.488;6.618;2024-02-21T13:34:45;100896.69;;;13.48;88.85
5883;BME280;2967;51.488;6.618;2024-02-21T13:39:48;100863.00;;;13.49;88.74
5883;BME280;2967;51.488;6.618;2024-02-21T13:44:50;100861.03;;;13.40;89.58
5883;BME280;2967;51.488;6.618;2024-02-21T13:49:54;100847.38;;;13.33;89.29
5883;BME280;2967;51.488;6.618;2024-02-21T13:54:58;100835.31;;;13.40;89.97
5883;BME280;2967;51.488;6.618;2024-02-21T14:00:01;100842.94;;;13.45;89.85
5883;BME280;2967;51.488;6.618;2024-02-21T14:05:14;100834.75;;;13.48;90.11
5883;BME280;2967;51.488;6.618;2024-02-21T14:10:17;100822.91;;;13.52;90.48
5883;BME280;2967;51.488;6.618;2024-02-21T14:15:20;100803.88;;;13.69;89.27
5883;BME280;2967;51.488;6.618;2024-02-21T14:20:24;100806.28;;;13.72;89.87
5883;BME280;2967;51.488;6.618;2024-02-21T14:25:27;100784.78;;;13.97;88.94
5883;BME280;2967;51.488;6.618;2024-02-21T14:30:30;100775.59;;;13.90;88.72
5883;BME280;2967;51.488;6.618;2024-02-21T14:35:34;100760.59;;;13.67;89.76
5883;BME280;2967;51.488;6.618;2024-02-21T14:40:36;100744.63;;;13.45;90.50
5883;BME280;2967;51.488;6.618;2024-02-21T14:45:39;100736.63;;;13.45;89.43
5883;BME280;2967;51.488;6.618;2024-02-21T14:50:43;100710.06;;;13.34;90.51
5883;BME280;2967;51.488;6.618;2024-02-21T14:55:46;100677.81;;;13.38;88.78
5883;BME280;2967;51.488;6.618;2024-02-21T15:00:48;100680.22;;;13.41;89.27
5883;BME280;2967;51.488;6.618;2024-02-21T15:05:53;100674.69;;;13.44;90.30
5883;BME280;2967;51.488;6.618;2024-02-21T15:10:56;100661.78;;;13.40;90.25
5883;BME280;2967;51.488;6.618;2024-02-21T15:15:59;100649.56;;;13.37;89.68
5883;BME280;2967;51.488;6.618;2024-02-21T15:21:04;100620.34;;;13.16;91.32
5883;BME280;2967;51.488;6.618;2024-02-21T15:26:08;100634.34;;;13.28;91.75
5883;BME280;2967;51.488;6.618;2024-02-21T15:31:19;100616.22;;;13.22;91.77
5883;BME280;2967;51.488;6.618;2024-02-21T15:36:24;100606.19;;;13.15;92.12
5883;BME280;2967;51.488;6.618;2024-02-21T15:41:29;100589.28;;;13.16;90.52
5883;BME280;2967;51.488;6.618;2024-02-21T15:46:32;100597.25;;;13.27;91.26
5883;BME280;2967;51.488;6.618;2024-02-21T15:51:39;100579.78;;;13.24;89.84
5883;BME280;2967;51.488;6.618;2024-02-21T15:56:42;100563.59;;;13.27;89.75
5883;BME280;2967;51.488;6.618;2024-02-21T16:01:45;100542.81;;;13.21;88.11
5883;BME280;2967;51.488;6.618;2024-02-21T16:06:49;100559.63;;;13.11;89.67
5883;BME280;2967;51.488;6.618;2024-02-21T16:11:53;100548.63;;;13.05;87.58
5883;BME280;2967;51.488;6.618;2024-02-21T16:16:56;100534.75;;;13.12;87.46
5883;BME280;2967;51.488;6.618;2024-02-21T16:22:00;100530.41;;;13.00;89.98
5883;BME280;2967;51.488;6.618;2024-02-21T16:27:06;100517.50;;;12.96;96.17
5883;BME280;2967;51.488;6.618;2024-02-21T16:32:11;100520.94;;;12.85;97.54
5883;BME280;2967;51.488;6.618;2024-02-21T16:37:15;100487.16;;;12.65;97.58
5883;BME280;2967;51.488;6.618;2024-02-21T16:42:17;100501.88;;;12.58;99.45
5883;BME280;2967;51.488;6.618;2024-02-21T16:47:20;100486.88;;;12.46;100.00
5883;BME280;2967;51.488;6.618;2024-02-21T16:52:24;100467.22;;;12.27;100.00
5883;BME280;2967;51.488;6.618;2024-02-21T16:57:28;100451.19;;;12.28;100.00
5883;BME280;2967;51.488;6.618;2024-02-21T17:02:30;100447.91;;;12.14;100.00
5883;BME280;2967;51.488;6.618;2024-02-21T17:07:39;100434.50;;;12.15;100.00
5883;BME280;2967;51.488;6.618;2024-02-21T17:12:42;100407.97;;;11.93;100.00
5883;BME280;2967;51.488;6.618;2024-02-21T17:17:45;100399.03;;;11.83;100.00
5883;BME280;2967;51.488;6.618;2024-02-21T17:22:49;100380.34;;;11.74;100.00
5883;BME280;2967;51.488;6.618;2024-02-21T17:27:52;100380.47;;;11.83;100.00
5883;BME280;2967;51.488;6.618;2024-02-21T17:32:55;100368.44;;;11.79;100.00
5883;BME280;2967;51.488;6.618;2024-02-21T17:37:59;100344.94;;;11.75;100.00
5883;BME280;2967;51.488;6.618;2024-02-21T17:43:03;100346.97;;;11.71;100.00
5883;BME280;2967;51.488;6.618;2024-02-21T17:48:06;100336.00;;;11.65;100.00
5883;BME280;2967;51.488;6.618;2024-02-21T17:53:11;100334.19;;;11.65;100.00
5883;BME280;2967;51.488;6.618;2024-02-21T17:58:14;100339.09;;;11.59;100.00
5883;BME280;2967;51.488;6.618;2024-02-21T18:03:19;100327.03;;;11.55;100.00
5883;BME280;2967;51.488;6.618;2024-02-21T18:08:23;100329.31;;;11.48;100.00
5883;BME280;2967;51.488;6.618;2024-02-21T18:13:26;100319.19;;;11.53;100.00
5883;BME280;2967;51.488;6.618;2024-02-21T18:18:32;100308.31;;;11.45;100.00
5883;BME280;2967;51.488;6.618;2024-02-21T18:23:36;100303.34;;;11.30;100.00
5883;BME280;2967;51.488;6.618;2024-02-21T18:28:39;100288.16;;;11.21;100.00
5883;BME280;2967;51.488;6.618;2024-02-21T18:33:42;100280.44;;;11.18;100.00
5883;BME280;2967;51.488;6.618;2024-02-21T18:38:47;100279.63;;;11.17;100.00
5883;BME280;2967;51.488;6.618;2024-02-21T18:43:50;100271.16;;;11.12;100.00
5883;BME280;2967;51.488;6.618;2024-02-21T18:48:53;100254.25;;;11.71;100.00
5883;BME280;2967;51.488;6.618;2024-02-21T18:53:57;100248.91;;;11.15;100.00
5883;BME280;2967;51.488;6.618;2024-02-21T18:59:00;100243.13;;;11.10;100.00
5883;BME280;2967;51.488;6.618;2024-02-21T19:04:03;100230.50;;;11.13;100.00
5883;BME280;2967;51.488;6.618;2024-02-21T19:09:08;100219.53;;;11.07;100.00
5883;BME280;2967;51.488;6.618;2024-02-21T19:14:11;100184.13;;;10.86;100.00
5883;BME280;2967;51.488;6.618;2024-02-21T19:19:15;100184.38;;;10.94;100.00
5883;BME280;2967;51.488;6.618;2024-02-21T19:24:19;100173.66;;;10.95;100.00
5883;BME280;2967;51.488;6.618;2024-02-21T19:29:22;100164.69;;;11.20;100.00
5883;BME280;2967;51.488;6.618;2024-02-21T19:34:27;100136.25;;;10.89;100.00
5883;BME280;2967;51.488;6.618;2024-02-21T19:39:31;100145.69;;;11.04;100.00
5883;BME280;2967;51.488;6.618;2024-02-21T19:44:34;100119.78;;;10.96;100.00
5883;BME280;2967;51.488;6.618;2024-02-21T19:49:37;100128.22;;;11.01;100.00
5883;BME280;2967;51.488;6.618;2024-02-21T19:54:41;100102.38;;;11.05;100.00
5883;BME280;2967;51.488;6.618;2024-02-21T19:59:44;100112.00;;;11.06;100.00
5883;BME280;2967;51.488;6.618;2024-02-21T20:04:47;100106.44;;;11.09;100.00
5883;BME280;2967;51.488;6.618;2024-02-21T20:09:52;100089.59;;;10.99;100.00
5883;BME280;2967;51.488;6.618;2024-02-21T20:14:54;100088.88;;;11.08;100.00
5883;BME280;2967;51.488;6.618;2024-02-21T20:19:57;100070.00;;;10.90;100.00
5883;BME280;2967;51.488;6.618;2024-02-21T20:25:02;100060.84;;;11.16;100.00
5883;BME280;2967;51.488;6.618;2024-02-21T20:30:06;100032.13;;;11.23;100.00
5883;BME280;2967;51.488;6.618;2024-02-21T20:35:09;100028.63;;;11.22;100.00
5883;BME280;2967;51.488;6.618;2024-02-21T20:40:15;100012.81;;;11.32;100.00
5883;BME280;2967;51.488;6.618;2024-02-21T20:45:19;100000.34;;;11.12;100.00
5883;BME280;2967;51.488;6.618;2024-02-21T20:50:22;99986.25;;;11.33;100.00
5883;BME280;2967;51.488;6.618;2024-02-21T20:55:27;99988.53;;;11.27;100.00
5883;BME280;2967;51.488;6.618;2024-02-21T21:00:32;99978.53;;;11.41;100.00
5883;BME280;2967;51.488;6.618;2024-02-21T21:05:36;99962.16;;;11.36;100.00
5883;BME280;2967;51.488;6.618;2024-02-21T21:10:41;99964.25;;;11.11;100.00
5883;BME280;2967;51.488;6.618;2024-02-21T21:15:45;99947.97;;;11.37;100.00
5883;BME280;2967;51.488;6.618;2024-02-21T21:20:49;99951.16;;;10.65;100.00
5883;BME280;2967;51.488;6.618;2024-02-21T21:25:53;99932.78;;;10.75;100.00
5883;BME280;2967;51.488;6.618;2024-02-21T21:30:57;99936.84;;;11.01;100.00
5883;BME280;2967;51.488;6.618;2024-02-21T21:36:00;99924.19;;;11.15;100.00
5883;BME280;2967;51.488;6.618;2024-02-21T21:41:07;99918.44;;;11.53;100.00
5883;BME280;2967;51.488;6.618;2024-02-21T21:46:11;99907.09;;;11.19;100.00
5883;BME280;2967;51.488;6.618;2024-02-21T21:51:15;99905.22;;;11.10;100.00
5883;BME280;2967;51.488;6.618;2024-02-21T21:56:19;99897.53;;;11.39;100.00
5883;BME280;2967;51.488;6.618;2024-02-21T22:01:26;99895.06;;;11.89;100.00
5883;BME280;2967;51.488;6.618;2024-02-21T22:06:29;99886.72;;;11.94;100.00
5883;BME280;2967;51.488;6.618;2024-02-21T22:11:34;99871.06;;;11.70;100.00
5883;BME280;2967;51.488;6.618;2024-02-21T22:16:37;99873.50;;;11.62;100.00
5883;BME280;2967;51.488;6.618;2024-02-21T22:21:39;99867.03;;;11.24;100.00
5883;BME280;2967;51.488;6.618;2024-02-21T22:26:44;99829.66;;;11.06;100.00
5883;BME280;2967;51.488;6.618;2024-02-21T22:31:48;99843.88;;;11.37;100.00
5883;BME280;2967;51.488;6.618;2024-02-21T22:36:52;99832.81;;;11.32;100.00
5883;BME280;2967;51.488;6.618;2024-02-21T22:41:56;99814.16;;;11.33;100.00
5883;BME280;2967;51.488;6.618;2024-02-21T22:47:00;99811.88;;;11.29;100.00
5883;BME280;2967;51.488;6.618;2024-02-21T22:52:03;99815.84;;;11.34;100.00
5883;BME280;2967;51.488;6.618;2024-02-21T22:57:07;99811.13;;;11.38;100.00
5883;BME280;2967;51.488;6.618;2024-02-21T23:02:11;99792.31;;;11.41;100.00
5883;BME280;2967;51.488;6.618;2024-02-21T23:07:14;99775.47;;;11.42;100.00
5883;BME280;2967;51.488;6.618;2024-02-21T23:12:19;99768.38;;;11.42;100.00
5883;BME280;2967;51.488;6.618;2024-02-21T23:17:22;99772.69;;;11.84;100.00
5883;BME280;2967;51.488;6.618;2024-02-21T23:22:25;99763.47;;;11.38;100.00
5883;BME280;2967;51.488;6.618;2024-02-21T23:27:29;99755.59;;;11.68;100.00
5883;BME280;2967;51.488;6.618;2024-02-21T23:32:33;99743.13;;;11.38;100.00
5883;BME280;2967;51.488;6.618;2024-02-21T23:37:37;99746.63;;;11.39;100.00
5883;BME280;2967;51.488;6.618;2024-02-21T23:42:42;99733.84;;;11.44;100.00
5883;BME280;2967;51.488;6.618;2024-02-21T23:47:48;99720.38;;;11.56;100.00
5883;BME280;2967;51.488;6.618;2024-02-21T23:52:51;99715.34;;;11.53;100.00
5883;BME280;2967;51.488;6.618;2024-02-21T23:57:55;99706.38;;;11.65;100.00
